sensor_id;sensor_type;location;lat;lon;timestamp;P1;durP1;ratioP1;P2;durP2;ratioP2
29196;SDS011;62796;42.654;23.316;2023-07-08T00:00:19;19.48;;;16.58;;
29196;SDS011;62796;42.654;23.316;2023-07-08T00:02:46;19.83;;;16.00;;
29196;SDS011;62796;42.654;23.316;2023-07-08T00:05:12;19.83;;;16.48;;
29196;SDS011;62796;42.654;23.316;2023-07-08T00:07:40;19.20;;;16.25;;
29196;SDS011;62796;42.654;23.316;2023-07-08T00:10:20;17.80;;;15.90;;
29196;SDS011;62796;42.654;23.316;2023-07-08T00:12:48;25.02;;;16.38;;
29196;SDS011;62796;42.654;23.316;2023-07-08T00:15:15;23.33;;;16.65;;
29196;SDS011;62796;42.654;23.316;2023-07-08T00:17:42;19.83;;;17.02;;
29196;SDS011;62796;42.654;23.316;2023-07-08T00:20:12;19.52;;;16.88;;
29196;SDS011;62796;42.654;23.316;2023-07-08T00:22:42;19.05;;;17.05;;
29196;SDS011;62796;42.654;23.316;2023-07-08T00:25:11;19.13;;;17.15;;
29196;SDS011;62796;42.654;23.316;2023-07-08T00:27:38;20.90;;;15.68;;
29196;SDS011;62796;42.654;23.316;2023-07-08T00:30:10;19.70;;;17.30;;
29196;SDS011;62796;42.654;23.316;2023-07-08T00:32:42;18.33;;;16.17;;
29196;SDS011;62796;42.654;23.316;2023-07-08T00:35:08;20.02;;;17.88;;
29196;SDS011;62796;42.654;23.316;2023-07-08T00:37:33;19.75;;;17.17;;
29196;SDS011;62796;42.654;23.316;2023-07-08T00:39:58;19.25;;;17.00;;
29196;SDS011;62796;42.654;23.316;2023-07-08T00:42:24;17.92;;;16.00;;
29196;SDS011;62796;42.654;23.316;2023-07-08T00:44:50;18.55;;;16.65;;
29196;SDS011;62796;42.654;23.316;2023-07-08T00:47:16;20.48;;;17.42;;
29196;SDS011;62796;42.654;23.316;2023-07-08T00:49:47;17.65;;;15.80;;
29196;SDS011;62796;42.654;23.316;2023-07-08T00:52:26;19.10;;;16.77;;
29196;SDS011;62796;42.654;23.316;2023-07-08T00:54:53;22.60;;;15.93;;
29196;SDS011;62796;42.654;23.316;2023-07-08T00:57:21;20.00;;;15.50;;
29196;SDS011;62796;42.654;23.316;2023-07-08T00:59:50;19.92;;;15.52;;
29196;SDS011;62796;42.654;23.316;2023-07-08T01:02:23;19.00;;;16.33;;
29196;SDS011;62796;42.654;23.316;2023-07-08T01:07:23;19.77;;;16.42;;
29196;SDS011;62796;42.654;23.316;2023-07-08T01:09:57;18.40;;;15.27;;
29196;SDS011;62796;42.654;23.316;2023-07-08T01:12:27;20.25;;;15.38;;
29196;SDS011;62796;42.654;23.316;2023-07-08T01:14:57;19.45;;;15.43;;
29196;SDS011;62796;42.654;23.316;2023-07-08T01:17:27;18.40;;;15.70;;
29196;SDS011;62796;42.654;23.316;2023-07-08T01:19:57;18.00;;;15.55;;
29196;SDS011;62796;42.654;23.316;2023-07-08T01:22:22;17.48;;;15.23;;
29196;SDS011;62796;42.654;23.316;2023-07-08T01:24:48;17.67;;;14.45;;
29196;SDS011;62796;42.654;23.316;2023-07-08T01:27:14;16.55;;;14.00;;
29196;SDS011;62796;42.654;23.316;2023-07-08T01:29:43;20.40;;;15.02;;
29196;SDS011;62796;42.654;23.316;2023-07-08T01:32:13;21.77;;;15.18;;
29196;SDS011;62796;42.654;23.316;2023-07-08T01:34:43;17.15;;;15.40;;
29196;SDS011;62796;42.654;23.316;2023-07-08T01:37:25;18.27;;;14.98;;
29196;SDS011;62796;42.654;23.316;2023-07-08T01:40:25;19.97;;;14.67;;
29196;SDS011;62796;42.654;23.316;2023-07-08T01:42:52;18.42;;;14.55;;
29196;SDS011;62796;42.654;23.316;2023-07-08T01:45:19;18.85;;;15.23;;
29196;SDS011;62796;42.654;23.316;2023-07-08T01:47:50;17.88;;;15.60;;
29196;SDS011;62796;42.654;23.316;2023-07-08T01:50:19;19.33;;;14.80;;
29196;SDS011;62796;42.654;23.316;2023-07-08T01:52:46;16.40;;;14.70;;
29196;SDS011;62796;42.654;23.316;2023-07-08T01:55:13;16.35;;;14.25;;
29196;SDS011;62796;42.654;23.316;2023-07-08T01:57:38;17.25;;;14.77;;
29196;SDS011;62796;42.654;23.316;2023-07-08T02:00:04;15.50;;;13.77;;
29196;SDS011;62796;42.654;23.316;2023-07-08T02:02:30;16.55;;;14.63;;
29196;SDS011;62796;42.654;23.316;2023-07-08T02:04:56;19.90;;;13.20;;
29196;SDS011;62796;42.654;23.316;2023-07-08T02:07:21;16.58;;;13.00;;
29196;SDS011;62796;42.654;23.316;2023-07-08T02:09:46;15.70;;;13.55;;
29196;SDS011;62796;42.654;23.316;2023-07-08T02:12:12;14.75;;;13.23;;
29196;SDS011;62796;42.654;23.316;2023-07-08T02:14:37;17.02;;;13.55;;
29196;SDS011;62796;42.654;23.316;2023-07-08T02:17:03;15.55;;;13.40;;
29196;SDS011;62796;42.654;23.316;2023-07-08T02:19:30;15.88;;;13.55;;
29196;SDS011;62796;42.654;23.316;2023-07-08T02:21:56;15.40;;;13.65;;
29196;SDS011;62796;42.654;23.316;2023-07-08T02:24:21;17.95;;;13.90;;
29196;SDS011;62796;42.654;23.316;2023-07-08T02:26:48;14.98;;;12.88;;
29196;SDS011;62796;42.654;23.316;2023-07-08T02:29:13;16.90;;;13.18;;
29196;SDS011;62796;42.654;23.316;2023-07-08T02:31:39;17.33;;;13.10;;
29196;SDS011;62796;42.654;23.316;2023-07-08T02:34:04;19.55;;;12.88;;
29196;SDS011;62796;42.654;23.316;2023-07-08T02:36:29;14.90;;;13.35;;
29196;SDS011;62796;42.654;23.316;2023-07-08T02:38:55;14.98;;;13.38;;
29196;SDS011;62796;42.654;23.316;2023-07-08T02:41:20;16.63;;;13.05;;
29196;SDS011;62796;42.654;23.316;2023-07-08T02:43:45;17.20;;;14.15;;
29196;SDS011;62796;42.654;23.316;2023-07-08T02:46:11;17.48;;;13.73;;
29196;SDS011;62796;42.654;23.316;2023-07-08T02:48:36;17.73;;;13.77;;
29196;SDS011;62796;42.654;23.316;2023-07-08T02:51:02;17.77;;;14.40;;
29196;SDS011;62796;42.654;23.316;2023-07-08T02:53:29;17.05;;;14.20;;
29196;SDS011;62796;42.654;23.316;2023-07-08T02:55:54;15.38;;;13.77;;
29196;SDS011;62796;42.654;23.316;2023-07-08T02:58:20;14.77;;;13.27;;
29196;SDS011;62796;42.654;23.316;2023-07-08T03:00:50;19.65;;;13.95;;
29196;SDS011;62796;42.654;23.316;2023-07-08T03:03:17;21.15;;;13.80;;
29196;SDS011;62796;42.654;23.316;2023-07-08T03:05:42;14.73;;;13.15;;
29196;SDS011;62796;42.654;23.316;2023-07-08T03:08:07;16.10;;;13.10;;
29196;SDS011;62796;42.654;23.316;2023-07-08T03:10:33;16.67;;;12.63;;
29196;SDS011;62796;42.654;23.316;2023-07-08T03:12:58;16.00;;;12.88;;
29196;SDS011;62796;42.654;23.316;2023-07-08T03:15:23;16.42;;;13.02;;
29196;SDS011;62796;42.654;23.316;2023-07-08T03:17:49;13.88;;;12.27;;
29196;SDS011;62796;42.654;23.316;2023-07-08T03:20:14;13.95;;;12.15;;
29196;SDS011;62796;42.654;23.316;2023-07-08T03:22:40;16.55;;;11.70;;
29196;SDS011;62796;42.654;23.316;2023-07-08T03:25:05;14.45;;;11.65;;
29196;SDS011;62796;42.654;23.316;2023-07-08T03:27:31;17.80;;;12.35;;
29196;SDS011;62796;42.654;23.316;2023-07-08T03:29:57;14.25;;;11.60;;
29196;SDS011;62796;42.654;23.316;2023-07-08T03:32:22;14.90;;;11.50;;
29196;SDS011;62796;42.654;23.316;2023-07-08T03:34:50;13.93;;;11.48;;
29196;SDS011;62796;42.654;23.316;2023-07-08T03:37:15;16.50;;;11.90;;
29196;SDS011;62796;42.654;23.316;2023-07-08T03:39:41;13.60;;;11.15;;
29196;SDS011;62796;42.654;23.316;2023-07-08T03:42:06;12.20;;;10.63;;
29196;SDS011;62796;42.654;23.316;2023-07-08T03:44:32;14.07;;;11.23;;
29196;SDS011;62796;42.654;23.316;2023-07-08T03:46:57;16.25;;;10.98;;
29196;SDS011;62796;42.654;23.316;2023-07-08T03:49:23;15.70;;;11.20;;
29196;SDS011;62796;42.654;23.316;2023-07-08T03:51:49;13.05;;;10.40;;
29196;SDS011;62796;42.654;23.316;2023-07-08T03:54:19;14.68;;;9.90;;
29196;SDS011;62796;42.654;23.316;2023-07-08T03:56:46;12.57;;;10.65;;
29196;SDS011;62796;42.654;23.316;2023-07-08T03:59:11;12.50;;;10.48;;
29196;SDS011;62796;42.654;23.316;2023-07-08T04:01:37;19.52;;;10.35;;
29196;SDS011;62796;42.654;23.316;2023-07-08T04:04:06;18.02;;;10.57;;
29196;SDS011;62796;42.654;23.316;2023-07-08T04:06:33;17.35;;;10.23;;
29196;SDS011;62796;42.654;23.316;2023-07-08T04:08:59;13.63;;;10.05;;
29196;SDS011;62796;42.654;23.316;2023-07-08T04:11:25;11.25;;;10.05;;
29196;SDS011;62796;42.654;23.316;2023-07-08T04:13:51;14.82;;;10.88;;
29196;SDS011;62796;42.654;23.316;2023-07-08T04:16:25;16.13;;;10.52;;
29196;SDS011;62796;42.654;23.316;2023-07-08T04:18:53;14.63;;;9.57;;
29196;SDS011;62796;42.654;23.316;2023-07-08T04:21:19;10.73;;;9.63;;
29196;SDS011;62796;42.654;23.316;2023-07-08T04:23:45;10.82;;;9.43;;
29196;SDS011;62796;42.654;23.316;2023-07-08T04:26:10;10.70;;;9.60;;
29196;SDS011;62796;42.654;23.316;2023-07-08T04:28:36;12.30;;;9.45;;
29196;SDS011;62796;42.654;23.316;2023-07-08T04:31:02;13.13;;;9.70;;
29196;SDS011;62796;42.654;23.316;2023-07-08T04:33:28;10.88;;;9.10;;
29196;SDS011;62796;42.654;23.316;2023-07-08T04:35:54;15.43;;;9.25;;
29196;SDS011;62796;42.654;23.316;2023-07-08T04:38:24;12.85;;;9.30;;
29196;SDS011;62796;42.654;23.316;2023-07-08T04:40:51;14.25;;;9.50;;
29196;SDS011;62796;42.654;23.316;2023-07-08T04:43:17;10.90;;;9.60;;
29196;SDS011;62796;42.654;23.316;2023-07-08T04:45:45;12.98;;;9.45;;
29196;SDS011;62796;42.654;23.316;2023-07-08T04:48:16;10.63;;;8.90;;
29196;SDS011;62796;42.654;23.316;2023-07-08T04:50:46;10.68;;;9.57;;
29196;SDS011;62796;42.654;23.316;2023-07-08T04:53:13;11.73;;;9.18;;
29196;SDS011;62796;42.654;23.316;2023-07-08T04:55:40;13.05;;;9.25;;
29196;SDS011;62796;42.654;23.316;2023-07-08T04:58:09;10.93;;;9.48;;
29196;SDS011;62796;42.654;23.316;2023-07-08T05:00:34;15.18;;;10.15;;
29196;SDS011;62796;42.654;23.316;2023-07-08T05:03:00;12.52;;;9.60;;
29196;SDS011;62796;42.654;23.316;2023-07-08T05:05:25;12.52;;;9.50;;
29196;SDS011;62796;42.654;23.316;2023-07-08T05:07:51;16.92;;;9.13;;
29196;SDS011;62796;42.654;23.316;2023-07-08T05:10:17;13.18;;;9.82;;
29196;SDS011;62796;42.654;23.316;2023-07-08T05:12:43;10.50;;;9.18;;
29196;SDS011;62796;42.654;23.316;2023-07-08T05:15:09;11.45;;;8.80;;
29196;SDS011;62796;42.654;23.316;2023-07-08T05:17:36;9.95;;;9.00;;
29196;SDS011;62796;42.654;23.316;2023-07-08T05:20:03;13.80;;;8.90;;
29196;SDS011;62796;42.654;23.316;2023-07-08T05:22:29;13.27;;;9.77;;
29196;SDS011;62796;42.654;23.316;2023-07-08T05:24:55;13.60;;;8.95;;
29196;SDS011;62796;42.654;23.316;2023-07-08T05:27:23;11.25;;;8.15;;
29196;SDS011;62796;42.654;23.316;2023-07-08T05:29:49;12.07;;;8.05;;
29196;SDS011;62796;42.654;23.316;2023-07-08T05:32:15;13.48;;;9.20;;
29196;SDS011;62796;42.654;23.316;2023-07-08T05:34:42;15.88;;;8.60;;
29196;SDS011;62796;42.654;23.316;2023-07-08T05:37:08;10.88;;;8.00;;
29196;SDS011;62796;42.654;23.316;2023-07-08T05:39:33;14.80;;;8.80;;
29196;SDS011;62796;42.654;23.316;2023-07-08T05:41:59;9.38;;;7.45;;
29196;SDS011;62796;42.654;23.316;2023-07-08T05:44:26;14.55;;;8.13;;
29196;SDS011;62796;42.654;23.316;2023-07-08T05:46:51;11.20;;;7.72;;
29196;SDS011;62796;42.654;23.316;2023-07-08T05:49:17;12.70;;;8.05;;
29196;SDS011;62796;42.654;23.316;2023-07-08T05:51:45;11.32;;;7.70;;
29196;SDS011;62796;42.654;23.316;2023-07-08T05:54:11;12.02;;;8.40;;
29196;SDS011;62796;42.654;23.316;2023-07-08T05:56:37;12.82;;;8.50;;
29196;SDS011;62796;42.654;23.316;2023-07-08T05:59:03;10.00;;;7.88;;
29196;SDS011;62796;42.654;23.316;2023-07-08T06:01:29;10.52;;;8.10;;
29196;SDS011;62796;42.654;23.316;2023-07-08T06:03:55;12.82;;;8.25;;
29196;SDS011;62796;42.654;23.316;2023-07-08T06:06:24;11.73;;;7.93;;
29196;SDS011;62796;42.654;23.316;2023-07-08T06:08:50;11.38;;;8.18;;
29196;SDS011;62796;42.654;23.316;2023-07-08T06:11:15;9.63;;;8.57;;
29196;SDS011;62796;42.654;23.316;2023-07-08T06:13:41;9.80;;;8.48;;
29196;SDS011;62796;42.654;23.316;2023-07-08T06:16:07;11.30;;;8.50;;
29196;SDS011;62796;42.654;23.316;2023-07-08T06:18:32;15.57;;;8.93;;
29196;SDS011;62796;42.654;23.316;2023-07-08T06:20:58;10.43;;;8.88;;
29196;SDS011;62796;42.654;23.316;2023-07-08T06:23:23;12.52;;;7.95;;
29196;SDS011;62796;42.654;23.316;2023-07-08T06:25:49;9.60;;;8.68;;
29196;SDS011;62796;42.654;23.316;2023-07-08T06:28:15;10.57;;;8.85;;
29196;SDS011;62796;42.654;23.316;2023-07-08T06:30:40;12.10;;;8.95;;
29196;SDS011;62796;42.654;23.316;2023-07-08T06:33:06;15.07;;;9.20;;
29196;SDS011;62796;42.654;23.316;2023-07-08T06:35:31;12.50;;;7.97;;
29196;SDS011;62796;42.654;23.316;2023-07-08T06:37:57;16.80;;;8.30;;
29196;SDS011;62796;42.654;23.316;2023-07-08T06:40:23;11.30;;;8.43;;
29196;SDS011;62796;42.654;23.316;2023-07-08T06:42:48;11.38;;;9.00;;
29196;SDS011;62796;42.654;23.316;2023-07-08T06:45:14;14.10;;;9.00;;
29196;SDS011;62796;42.654;23.316;2023-07-08T06:47:39;14.00;;;8.85;;
29196;SDS011;62796;42.654;23.316;2023-07-08T06:50:05;13.88;;;8.75;;
29196;SDS011;62796;42.654;23.316;2023-07-08T06:52:32;14.57;;;8.63;;
29196;SDS011;62796;42.654;23.316;2023-07-08T06:55:02;8.13;;;7.25;;
29196;SDS011;62796;42.654;23.316;2023-07-08T06:57:29;11.60;;;7.72;;
29196;SDS011;62796;42.654;23.316;2023-07-08T06:59:54;14.98;;;9.07;;
29196;SDS011;62796;42.654;23.316;2023-07-08T07:02:20;10.23;;;7.72;;
29196;SDS011;62796;42.654;23.316;2023-07-08T07:04:45;15.43;;;8.23;;
29196;SDS011;62796;42.654;23.316;2023-07-08T07:07:11;12.13;;;7.68;;
29196;SDS011;62796;42.654;23.316;2023-07-08T07:09:37;10.48;;;7.95;;
29196;SDS011;62796;42.654;23.316;2023-07-08T07:12:04;12.82;;;7.53;;
29196;SDS011;62796;42.654;23.316;2023-07-08T07:14:31;10.30;;;7.63;;
29196;SDS011;62796;42.654;23.316;2023-07-08T07:16:57;13.48;;;7.60;;
29196;SDS011;62796;42.654;23.316;2023-07-08T07:19:22;13.93;;;8.57;;
29196;SDS011;62796;42.654;23.316;2023-07-08T07:21:48;14.82;;;8.55;;
29196;SDS011;62796;42.654;23.316;2023-07-08T07:24:13;9.80;;;7.72;;
29196;SDS011;62796;42.654;23.316;2023-07-08T07:26:39;14.63;;;8.13;;
29196;SDS011;62796;42.654;23.316;2023-07-08T07:29:04;11.00;;;8.20;;
29196;SDS011;62796;42.654;23.316;2023-07-08T07:31:30;13.38;;;8.15;;
29196;SDS011;62796;42.654;23.316;2023-07-08T07:33:56;17.10;;;7.85;;
29196;SDS011;62796;42.654;23.316;2023-07-08T07:36:21;10.57;;;8.30;;
29196;SDS011;62796;42.654;23.316;2023-07-08T07:38:46;13.65;;;8.27;;
29196;SDS011;62796;42.654;23.316;2023-07-08T07:41:12;12.35;;;8.25;;
29196;SDS011;62796;42.654;23.316;2023-07-08T07:43:37;11.55;;;9.05;;
29196;SDS011;62796;42.654;23.316;2023-07-08T07:46:03;13.90;;;8.32;;
29196;SDS011;62796;42.654;23.316;2023-07-08T07:48:30;13.70;;;7.70;;
29196;SDS011;62796;42.654;23.316;2023-07-08T07:50:56;11.85;;;7.78;;
29196;SDS011;62796;42.654;23.316;2023-07-08T07:53:22;10.55;;;7.85;;
29196;SDS011;62796;42.654;23.316;2023-07-08T07:55:48;12.95;;;8.75;;
29196;SDS011;62796;42.654;23.316;2023-07-08T07:58:20;13.73;;;8.00;;
29196;SDS011;62796;42.654;23.316;2023-07-08T08:00:45;11.90;;;7.78;;
29196;SDS011;62796;42.654;23.316;2023-07-08T08:03:11;20.30;;;8.77;;
29196;SDS011;62796;42.654;23.316;2023-07-08T08:05:37;12.00;;;8.07;;
29196;SDS011;62796;42.654;23.316;2023-07-08T08:08:02;10.27;;;7.93;;
29196;SDS011;62796;42.654;23.316;2023-07-08T08:10:29;10.80;;;7.45;;
29196;SDS011;62796;42.654;23.316;2023-07-08T08:12:55;8.25;;;7.40;;
29196;SDS011;62796;42.654;23.316;2023-07-08T08:15:21;10.88;;;8.38;;
29196;SDS011;62796;42.654;23.316;2023-07-08T08:17:47;12.90;;;7.88;;
29196;SDS011;62796;42.654;23.316;2023-07-08T08:20:14;10.93;;;7.70;;
29196;SDS011;62796;42.654;23.316;2023-07-08T08:22:40;9.43;;;7.10;;
29196;SDS011;62796;42.654;23.316;2023-07-08T08:25:05;8.35;;;7.40;;
29196;SDS011;62796;42.654;23.316;2023-07-08T08:27:31;9.20;;;7.15;;
29196;SDS011;62796;42.654;23.316;2023-07-08T08:29:57;13.60;;;7.20;;
29196;SDS011;62796;42.654;23.316;2023-07-08T08:32:22;16.60;;;8.10;;
29196;SDS011;62796;42.654;23.316;2023-07-08T08:34:48;10.02;;;7.13;;
29196;SDS011;62796;42.654;23.316;2023-07-08T08:37:13;15.77;;;7.75;;
29196;SDS011;62796;42.654;23.316;2023-07-08T08:39:39;11.95;;;7.40;;
29196;SDS011;62796;42.654;23.316;2023-07-08T08:42:04;14.30;;;7.80;;
29196;SDS011;62796;42.654;23.316;2023-07-08T08:44:39;10.38;;;7.22;;
29196;SDS011;62796;42.654;23.316;2023-07-08T08:50:12;9.10;;;7.07;;
29196;SDS011;62796;42.654;23.316;2023-07-08T08:52:49;9.90;;;7.43;;
29196;SDS011;62796;42.654;23.316;2023-07-08T08:55:16;11.32;;;7.57;;
29196;SDS011;62796;42.654;23.316;2023-07-08T08:57:43;11.90;;;7.60;;
29196;SDS011;62796;42.654;23.316;2023-07-08T09:00:16;9.20;;;7.18;;
29196;SDS011;62796;42.654;23.316;2023-07-08T09:03:01;9.80;;;8.20;;
29196;SDS011;62796;42.654;23.316;2023-07-08T09:05:35;8.35;;;7.53;;
29196;SDS011;62796;42.654;23.316;2023-07-08T09:08:05;9.40;;;7.30;;
29196;SDS011;62796;42.654;23.316;2023-07-08T09:13:19;11.40;;;7.15;;
29196;SDS011;62796;42.654;23.316;2023-07-08T09:19:00;9.57;;;7.18;;
29196;SDS011;62796;42.654;23.316;2023-07-08T09:21:35;8.32;;;7.20;;
29196;SDS011;62796;42.654;23.316;2023-07-08T09:24:48;8.65;;;7.10;;
29196;SDS011;62796;42.654;23.316;2023-07-08T09:27:13;9.77;;;7.78;;
29196;SDS011;62796;42.654;23.316;2023-07-08T09:29:39;8.32;;;7.18;;
29196;SDS011;62796;42.654;23.316;2023-07-08T09:32:15;11.48;;;7.32;;
29196;SDS011;62796;42.654;23.316;2023-07-08T09:35:04;10.35;;;7.20;;
29196;SDS011;62796;42.654;23.316;2023-07-08T09:40:01;13.40;;;8.15;;
29196;SDS011;62796;42.654;23.316;2023-07-08T09:42:33;9.93;;;7.25;;
29196;SDS011;62796;42.654;23.316;2023-07-08T09:45:00;10.02;;;7.38;;
29196;SDS011;62796;42.654;23.316;2023-07-08T09:47:34;8.23;;;7.18;;
29196;SDS011;62796;42.654;23.316;2023-07-08T09:50:03;9.50;;;6.90;;
29196;SDS011;62796;42.654;23.316;2023-07-08T09:52:40;7.53;;;6.68;;
29196;SDS011;62796;42.654;23.316;2023-07-08T09:55:07;7.65;;;6.20;;
29196;SDS011;62796;42.654;23.316;2023-07-08T09:57:36;9.18;;;6.78;;
29196;SDS011;62796;42.654;23.316;2023-07-08T10:00:06;11.20;;;6.78;;
29196;SDS011;62796;42.654;23.316;2023-07-08T10:05:16;12.98;;;7.10;;
29196;SDS011;62796;42.654;23.316;2023-07-08T10:07:45;6.97;;;6.18;;
29196;SDS011;62796;42.654;23.316;2023-07-08T10:10:13;11.82;;;6.85;;
29196;SDS011;62796;42.654;23.316;2023-07-08T10:12:43;9.57;;;5.85;;
29196;SDS011;62796;42.654;23.316;2023-07-08T10:15:21;9.25;;;6.30;;
29196;SDS011;62796;42.654;23.316;2023-07-08T10:18:13;9.85;;;5.93;;
29196;SDS011;62796;42.654;23.316;2023-07-08T10:21:31;7.93;;;6.32;;
29196;SDS011;62796;42.654;23.316;2023-07-08T10:23:47;12.00;;;6.25;;
29196;SDS011;62796;42.654;23.316;2023-07-08T10:26:33;6.60;;;5.63;;
29196;SDS011;62796;42.654;23.316;2023-07-08T10:37:14;6.22;;;5.28;;
29196;SDS011;62796;42.654;23.316;2023-07-08T10:44:55;6.03;;;5.43;;
29196;SDS011;62796;42.654;23.316;2023-07-08T10:52:48;7.95;;;5.25;;
29196;SDS011;62796;42.654;23.316;2023-07-08T10:58:26;8.25;;;4.88;;
29196;SDS011;62796;42.654;23.316;2023-07-08T11:09:33;8.43;;;5.13;;
29196;SDS011;62796;42.654;23.316;2023-07-08T11:20:38;7.57;;;5.43;;
29196;SDS011;62796;42.654;23.316;2023-07-08T11:23:19;7.15;;;5.13;;
29196;SDS011;62796;42.654;23.316;2023-07-08T11:25:48;7.43;;;5.30;;
29196;SDS011;62796;42.654;23.316;2023-07-08T11:28:17;9.05;;;5.55;;
29196;SDS011;62796;42.654;23.316;2023-07-08T11:30:44;7.07;;;4.97;;
29196;SDS011;62796;42.654;23.316;2023-07-08T11:33:12;8.63;;;5.00;;
29196;SDS011;62796;42.654;23.316;2023-07-08T11:38:20;6.07;;;5.47;;
29196;SDS011;62796;42.654;23.316;2023-07-08T11:43:20;7.07;;;5.13;;
29196;SDS011;62796;42.654;23.316;2023-07-08T11:45:48;9.48;;;5.15;;
29196;SDS011;62796;42.654;23.316;2023-07-08T11:48:27;6.32;;;5.20;;
29196;SDS011;62796;42.654;23.316;2023-07-08T11:50:55;8.55;;;5.25;;
29196;SDS011;62796;42.654;23.316;2023-07-08T11:58:28;6.87;;;5.03;;
29196;SDS011;62796;42.654;23.316;2023-07-08T12:01:16;9.32;;;4.82;;
29196;SDS011;62796;42.654;23.316;2023-07-08T12:03:49;8.00;;;5.15;;
29196;SDS011;62796;42.654;23.316;2023-07-08T12:08:55;6.53;;;4.50;;
29196;SDS011;62796;42.654;23.316;2023-07-08T12:11:28;7.85;;;4.30;;
29196;SDS011;62796;42.654;23.316;2023-07-08T12:14:03;9.32;;;4.82;;
29196;SDS011;62796;42.654;23.316;2023-07-08T12:16:30;6.57;;;4.55;;
29196;SDS011;62796;42.654;23.316;2023-07-08T12:19:00;7.43;;;4.78;;
29196;SDS011;62796;42.654;23.316;2023-07-08T12:21:30;6.13;;;4.50;;
29196;SDS011;62796;42.654;23.316;2023-07-08T12:24:03;9.60;;;5.07;;
29196;SDS011;62796;42.654;23.316;2023-07-08T12:26:29;6.50;;;4.82;;
29196;SDS011;62796;42.654;23.316;2023-07-08T12:28:56;12.93;;;4.55;;
29196;SDS011;62796;42.654;23.316;2023-07-08T12:31:22;7.50;;;4.57;;
29196;SDS011;62796;42.654;23.316;2023-07-08T12:33:49;4.80;;;4.22;;
29196;SDS011;62796;42.654;23.316;2023-07-08T12:36:22;5.68;;;4.18;;
29196;SDS011;62796;42.654;23.316;2023-07-08T12:38:52;6.38;;;4.65;;
29196;SDS011;62796;42.654;23.316;2023-07-08T12:41:23;5.10;;;4.60;;
29196;SDS011;62796;42.654;23.316;2023-07-08T12:43:51;6.63;;;4.15;;
29196;SDS011;62796;42.654;23.316;2023-07-08T12:46:18;5.05;;;4.47;;
29196;SDS011;62796;42.654;23.316;2023-07-08T12:48:45;5.53;;;4.10;;
29196;SDS011;62796;42.654;23.316;2023-07-08T12:51:11;8.07;;;4.60;;
29196;SDS011;62796;42.654;23.316;2023-07-08T12:53:38;4.53;;;4.00;;
29196;SDS011;62796;42.654;23.316;2023-07-08T12:56:03;6.38;;;4.57;;
29196;SDS011;62796;42.654;23.316;2023-07-08T12:58:30;4.80;;;4.03;;
29196;SDS011;62796;42.654;23.316;2023-07-08T13:00:59;9.60;;;4.38;;
29196;SDS011;62796;42.654;23.316;2023-07-08T13:03:28;7.20;;;4.00;;
29196;SDS011;62796;42.654;23.316;2023-07-08T13:05:57;5.25;;;4.05;;
29196;SDS011;62796;42.654;23.316;2023-07-08T13:08:26;5.72;;;4.45;;
29196;SDS011;62796;42.654;23.316;2023-07-08T13:10:56;6.28;;;4.10;;
29196;SDS011;62796;42.654;23.316;2023-07-08T13:13:24;7.13;;;4.43;;
29196;SDS011;62796;42.654;23.316;2023-07-08T13:15:54;7.38;;;3.95;;
29196;SDS011;62796;42.654;23.316;2023-07-08T13:18:36;7.47;;;4.07;;
29196;SDS011;62796;42.654;23.316;2023-07-08T13:23:30;6.00;;;4.05;;
29196;SDS011;62796;42.654;23.316;2023-07-08T13:25:56;6.82;;;3.85;;
29196;SDS011;62796;42.654;23.316;2023-07-08T13:28:29;7.20;;;4.15;;
29196;SDS011;62796;42.654;23.316;2023-07-08T13:31:02;5.55;;;3.50;;
29196;SDS011;62796;42.654;23.316;2023-07-08T13:33:37;10.77;;;4.25;;
29196;SDS011;62796;42.654;23.316;2023-07-08T13:36:03;4.25;;;3.72;;
29196;SDS011;62796;42.654;23.316;2023-07-08T13:38:34;4.85;;;3.90;;
29196;SDS011;62796;42.654;23.316;2023-07-08T13:41:03;6.82;;;3.50;;
29196;SDS011;62796;42.654;23.316;2023-07-08T13:43:36;5.93;;;4.22;;
29196;SDS011;62796;42.654;23.316;2023-07-08T13:46:04;6.10;;;3.88;;
29196;SDS011;62796;42.654;23.316;2023-07-08T13:48:33;7.45;;;3.58;;
29196;SDS011;62796;42.654;23.316;2023-07-08T13:51:03;8.13;;;4.13;;
29196;SDS011;62796;42.654;23.316;2023-07-08T13:56:11;4.75;;;3.65;;
29196;SDS011;62796;42.654;23.316;2023-07-08T13:58:50;5.18;;;3.47;;
29196;SDS011;62796;42.654;23.316;2023-07-08T14:01:21;6.05;;;3.90;;
29196;SDS011;62796;42.654;23.316;2023-07-08T14:03:50;9.48;;;4.10;;
29196;SDS011;62796;42.654;23.316;2023-07-08T14:06:21;4.28;;;3.85;;
29196;SDS011;62796;42.654;23.316;2023-07-08T14:08:48;5.88;;;4.07;;
29196;SDS011;62796;42.654;23.316;2023-07-08T14:11:14;6.80;;;4.13;;
29196;SDS011;62796;42.654;23.316;2023-07-08T14:13:39;6.47;;;4.00;;
29196;SDS011;62796;42.654;23.316;2023-07-08T14:16:10;5.95;;;3.92;;
29196;SDS011;62796;42.654;23.316;2023-07-08T14:18:50;7.07;;;3.53;;
29196;SDS011;62796;42.654;23.316;2023-07-08T14:21:17;6.28;;;3.58;;
29196;SDS011;62796;42.654;23.316;2023-07-08T14:23:43;7.53;;;4.28;;
29196;SDS011;62796;42.654;23.316;2023-07-08T14:26:11;9.30;;;3.78;;
29196;SDS011;62796;42.654;23.316;2023-07-08T14:28:38;6.15;;;4.00;;
29196;SDS011;62796;42.654;23.316;2023-07-08T14:31:07;5.00;;;3.95;;
29196;SDS011;62796;42.654;23.316;2023-07-08T14:33:35;6.57;;;4.20;;
29196;SDS011;62796;42.654;23.316;2023-07-08T14:36:00;4.93;;;4.15;;
29196;SDS011;62796;42.654;23.316;2023-07-08T14:38:26;4.88;;;3.83;;
29196;SDS011;62796;42.654;23.316;2023-07-08T14:40:51;6.18;;;4.05;;
29196;SDS011;62796;42.654;23.316;2023-07-08T14:43:17;10.23;;;4.32;;
29196;SDS011;62796;42.654;23.316;2023-07-08T14:45:49;8.73;;;3.80;;
29196;SDS011;62796;42.654;23.316;2023-07-08T14:48:17;6.25;;;3.85;;
29196;SDS011;62796;42.654;23.316;2023-07-08T14:50:42;6.18;;;3.97;;
29196;SDS011;62796;42.654;23.316;2023-07-08T14:53:08;5.82;;;3.80;;
29196;SDS011;62796;42.654;23.316;2023-07-08T14:55:34;5.82;;;4.15;;
29196;SDS011;62796;42.654;23.316;2023-07-08T14:58:00;7.13;;;4.00;;
29196;SDS011;62796;42.654;23.316;2023-07-08T15:00:28;6.40;;;3.92;;
29196;SDS011;62796;42.654;23.316;2023-07-08T15:02:54;8.07;;;4.57;;
29196;SDS011;62796;42.654;23.316;2023-07-08T15:05:24;6.18;;;4.40;;
29196;SDS011;62796;42.654;23.316;2023-07-08T15:07:53;8.45;;;4.55;;
29196;SDS011;62796;42.654;23.316;2023-07-08T15:10:20;9.60;;;4.75;;
29196;SDS011;62796;42.654;23.316;2023-07-08T15:12:48;7.95;;;4.55;;
29196;SDS011;62796;42.654;23.316;2023-07-08T15:15:26;5.80;;;3.80;;
29196;SDS011;62796;42.654;23.316;2023-07-08T15:17:55;4.80;;;4.03;;
29196;SDS011;62796;42.654;23.316;2023-07-08T15:20:21;9.77;;;4.75;;
29196;SDS011;62796;42.654;23.316;2023-07-08T15:22:47;8.13;;;5.43;;
29196;SDS011;62796;42.654;23.316;2023-07-08T15:25:13;9.90;;;4.20;;
29196;SDS011;62796;42.654;23.316;2023-07-08T15:27:40;7.57;;;4.88;;
29196;SDS011;62796;42.654;23.316;2023-07-08T15:30:29;5.68;;;4.20;;
29196;SDS011;62796;42.654;23.316;2023-07-08T15:32:54;5.88;;;4.63;;
29196;SDS011;62796;42.654;23.316;2023-07-08T15:35:22;5.68;;;4.05;;
29196;SDS011;62796;42.654;23.316;2023-07-08T15:40:21;9.63;;;4.55;;
29196;SDS011;62796;42.654;23.316;2023-07-08T15:42:48;8.90;;;4.68;;
29196;SDS011;62796;42.654;23.316;2023-07-08T15:45:19;11.88;;;6.57;;